Terminal Aerodrome Forecast
Issued by NWS Cleveland, OH

Current Version | Previous Version | Text Only | Print | Product List | Glossary On
Versions: 1 2 3 4 5 6 7 8 9 10 11 12 13 14 15 16 17 18 19
000
FTUS41 KCLE 272300 CCA
TAFCLE
TAF COR
KCLE 272357Z 2800/2906 21010KT P6SM VCSH OVC025
     FM280500 24012KT 6SM -SHRA BKN008 OVC015
      TEMPO 2806/2809 4SM -SHRA
     FM281100 31010KT P6SM SCT008 OVC012
     FM281700 31010KT P6SM OVC022
     FM282300 31010KT P6SM BKN035=

USA.gov is the U.S. government's official web portal to all federal, state and local government web resources and services.